Time;durP1;ratioP1;P1;durP2;ratioP2;P2;SDS_P1;SDS_P2;PMS_P1;PMS_P2;Temp;Humidity;BMP_temperature;BMP_pressure;BME280_temperature;BME280_humidity;BME280_pressure;Samples;Min_cycle;Max_cycle;Signal;HPM_P1;HPM_P2
2021/12/15 00:02:23;;;;;;;13.43;4.40;;;7.80;99.90;;;;;;5069689;28;20052;-76
2021/12/15 00:04:55;;;;;;;14.27;4.45;;;7.80;99.90;;;;;;5063300;28;20454;-76
2021/12/15 00:07:26;;;;;;;14.40;4.20;;;7.90;99.90;;;;;;5077842;28;20044;-75
2021/12/15 00:12:47;;;;;;;13.18;4.25;;;7.90;99.90;;;;;;5052581;28;20456;-75
2021/12/15 00:15:18;;;;;;;11.50;4.00;;;7.90;99.90;;;;;;5068896;28;20072;-76
2021/12/15 00:17:47;;;;;;;14.05;4.60;;;8.00;99.90;;;;;;5068694;28;20051;-75
2021/12/15 00:20:17;;;;;;;11.33;3.90;;;8.00;99.90;;;;;;5069493;28;20044;-75
2021/12/15 00:22:46;;;;;;;17.25;4.72;;;8.00;99.90;;;;;;5069640;28;20041;-75
2021/12/15 00:25:15;;;;;;;13.30;5.15;;;8.00;99.90;;;;;;5068484;28;20048;-75
2021/12/15 00:27:44;;;;;;;11.93;4.30;;;8.00;99.90;;;;;;5065441;28;20052;-75
2021/12/15 00:30:13;;;;;;;13.85;4.30;;;8.00;99.90;;;;;;5052390;28;20130;-75
2021/12/15 00:32:43;;;;;;;15.90;4.03;;;7.90;99.90;;;;;;5050289;28;20132;-75
2021/12/15 00:35:13;;;;;;;15.85;5.07;;;7.90;99.90;;;;;;5069612;28;20037;-76
2021/12/15 00:37:42;;;;;;;13.48;4.70;;;7.90;99.90;;;;;;5069599;28;20128;-75
2021/12/15 00:40:14;;;;;;;13.43;4.20;;;7.90;99.90;;;;;;5051659;28;20100;-75
2021/12/15 00:42:43;;;;;;;17.50;5.05;;;7.90;99.90;;;;;;5054940;28;20059;-76
2021/12/15 00:45:12;;;;;;;12.03;4.43;;;7.90;99.90;;;;;;5072436;28;20079;-75
2021/12/15 00:47:41;;;;;;;9.45;4.82;;;7.80;99.90;;;;;;5073337;28;20479;-75
2021/12/15 00:50:12;;;;;;;16.10;4.95;;;7.90;99.90;;;;;;5056458;28;20401;-76
2021/12/15 00:53:06;;;;;;;14.07;4.15;;;7.90;99.90;;;;;;5069635;28;20048;-76
2021/12/15 00:55:38;;;;;;;13.10;3.65;;;7.80;99.90;;;;;;5054934;28;20571;-75
2021/12/15 00:58:08;;;;;;;16.37;4.27;;;7.80;99.90;;;;;;5085607;28;20896;-76
2021/12/15 01:00:39;;;;;;;17.20;4.40;;;7.90;99.90;;;;;;5071807;28;20129;-76
2021/12/15 01:03:09;;;;;;;11.93;4.60;;;7.80;99.90;;;;;;5067472;28;20054;-75
2021/12/15 01:05:43;;;;;;;11.40;4.22;;;7.90;99.90;;;;;;5049345;28;20087;-75
2021/12/15 01:08:17;;;;;;;14.27;5.15;;;8.00;99.90;;;;;;5063971;28;20131;-75
2021/12/15 01:11:01;;;;;;;15.60;5.63;;;7.90;99.90;;;;;;5060491;28;20114;-75
2021/12/15 01:21:59;;;;;;;18.30;5.13;;;8.10;99.90;;;;;;5050394;28;20045;-76
2021/12/15 01:24:28;;;;;;;13.73;5.37;;;8.00;99.90;;;;;;5062894;28;20199;-76
2021/12/15 01:26:57;;;;;;;10.30;4.65;;;8.00;99.90;;;;;;5066041;28;20131;-76
2021/12/15 01:29:26;;;;;;;13.02;4.75;;;8.00;99.90;;;;;;5063859;28;20455;-75
2021/12/15 01:31:55;;;;;;;15.90;4.93;;;8.00;99.90;;;;;;5060471;28;20049;-76
2021/12/15 01:34:47;;;;;;;11.15;4.45;;;8.10;99.90;;;;;;5068151;28;20119;-75
2021/12/15 01:37:18;;;;;;;11.50;3.60;;;8.10;99.90;;;;;;5053501;28;20044;-76
2021/12/15 01:39:52;;;;;;;15.07;5.13;;;8.00;99.90;;;;;;5070491;28;20052;-76
2021/12/15 01:42:22;;;;;;;14.43;4.40;;;8.00;99.90;;;;;;5069047;28;20581;-76
2021/12/15 01:48:05;;;;;;;14.52;5.13;;;8.10;99.90;;;;;;5051144;28;20044;-76
2021/12/15 01:50:34;;;;;;;10.50;4.10;;;8.10;99.90;;;;;;5053701;28;20095;-75
2021/12/15 01:53:05;;;;;;;11.73;5.38;;;8.20;99.90;;;;;;5049703;28;20041;-76
2021/12/15 01:55:34;;;;;;;15.32;5.45;;;8.20;99.90;;;;;;5046874;28;20045;-75
2021/12/15 01:58:03;;;;;;;13.85;4.30;;;8.10;99.90;;;;;;5061602;28;20048;-75
2021/12/15 02:00:35;;;;;;;14.98;5.07;;;8.10;99.90;;;;;;5054355;28;20049;-75
2021/12/15 02:03:05;;;;;;;17.07;5.07;;;8.10;99.90;;;;;;5062434;28;20048;-75
2021/12/15 02:05:35;;;;;;;15.52;4.93;;;8.10;99.90;;;;;;5049146;28;20052;-76
2021/12/15 02:08:07;;;;;;;15.93;5.15;;;8.10;99.90;;;;;;5047249;28;20052;-77
2021/12/15 02:10:39;;;;;;;15.05;5.07;;;8.10;99.90;;;;;;5047144;28;20048;-75
2021/12/15 02:13:13;;;;;;;11.38;4.95;;;8.00;99.90;;;;;;5046113;28;20076;-75
2021/12/15 02:15:45;;;;;;;16.03;5.27;;;8.10;99.90;;;;;;5047398;28;20565;-75
2021/12/15 02:18:18;;;;;;;14.70;4.57;;;8.10;99.90;;;;;;5061990;28;20514;-76
2021/12/15 02:20:52;;;;;;;18.02;5.15;;;8.10;99.90;;;;;;5051426;28;20051;-76
2021/12/15 02:23:31;;;;;;;16.52;6.03;;;8.10;99.90;;;;;;5049902;28;20402;-75
2021/12/15 02:26:04;;;;;;;17.40;5.53;;;8.10;99.90;;;;;;5068218;28;20061;-75
2021/12/15 02:28:32;;;;;;;12.10;4.80;;;8.10;99.90;;;;;;5060966;28;20047;-75
2021/12/15 02:31:09;;;;;;;17.25;5.43;;;8.10;99.90;;;;;;5063661;28;20048;-75
2021/12/15 02:34:03;;;;;;;15.70;4.90;;;8.10;99.90;;;;;;5051687;28;20063;-75
2021/12/15 02:39:20;;;;;;;17.33;5.05;;;8.00;99.90;;;;;;5064332;28;20135;-76
2021/12/15 02:41:48;;;;;;;19.10;6.10;;;8.00;99.90;;;;;;5050555;28;20062;-76
2021/12/15 02:44:19;;;;;;;14.55;5.40;;;8.00;99.90;;;;;;5050685;28;20144;-76
2021/12/15 02:46:50;;;;;;;18.52;5.93;;;8.00;99.90;;;;;;5062459;28;20044;-75
2021/12/15 02:49:22;;;;;;;14.50;5.28;;;8.00;99.90;;;;;;5053264;28;20048;-76
2021/12/15 02:51:52;;;;;;;22.83;5.00;;;8.10;99.90;;;;;;5065087;28;20491;-76
2021/12/15 02:54:22;;;;;;;17.77;6.07;;;8.10;99.90;;;;;;5050214;28;20055;-75
2021/12/15 02:56:53;;;;;;;17.88;6.05;;;8.10;99.90;;;;;;5058984;28;20479;-75
2021/12/15 02:59:30;;;;;;;21.40;6.50;;;8.20;99.90;;;;;;5068184;28;20101;-75
2021/12/15 03:05:14;;;;;;;20.58;7.07;;;8.20;99.90;;;;;;5059685;28;20133;-75
2021/12/15 03:07:50;;;;;;;21.53;5.90;;;8.20;99.90;;;;;;5049063;28;20048;-75
2021/12/15 03:15:54;;;;;;;22.60;6.35;;;8.20;99.90;;;;;;5057511;28;20048;-75
2021/12/15 03:18:26;;;;;;;19.50;5.85;;;8.20;99.90;;;;;;5062674;28;20507;-75
2021/12/15 03:20:58;;;;;;;24.17;6.67;;;8.20;99.90;;;;;;5075719;28;20566;-75
2021/12/15 03:23:34;;;;;;;20.58;6.68;;;8.20;99.90;;;;;;5065310;28;20532;-75
2021/12/15 03:26:33;;;;;;;24.45;6.85;;;8.20;99.90;;;;;;5040792;28;20055;-75
2021/12/15 03:34:48;;;;;;;23.10;6.23;;;8.10;99.90;;;;;;5052076;28;20044;-76
2021/12/15 03:37:25;;;;;;;23.50;6.22;;;8.20;99.90;;;;;;5046565;28;20125;-76
2021/12/15 03:39:59;;;;;;;19.48;5.50;;;8.10;99.90;;;;;;5058805;28;20151;-75
2021/12/15 03:42:31;;;;;;;20.30;6.20;;;8.10;99.90;;;;;;5059699;28;20079;-75
2021/12/15 03:45:00;;;;;;;26.33;6.60;;;8.10;99.90;;;;;;5059485;28;20053;-75
2021/12/15 03:47:32;;;;;;;20.87;7.10;;;8.10;99.90;;;;;;5065779;28;20116;-76
2021/12/15 03:50:01;;;;;;;23.73;6.88;;;8.10;99.90;;;;;;5062378;28;20064;-75
2021/12/15 03:52:30;;;;;;;22.30;6.90;;;8.10;99.90;;;;;;5046816;28;20059;-76
2021/12/15 03:55:00;;;;;;;27.15;8.68;;;8.10;99.90;;;;;;5065058;28;20379;-76
2021/12/15 03:57:29;;;;;;;35.03;8.50;;;8.10;99.90;;;;;;5047792;28;20076;-76
2021/12/15 03:59:58;;;;;;;31.90;7.97;;;8.10;99.90;;;;;;5047983;28;20080;-76
2021/12/15 04:02:28;;;;;;;36.08;8.27;;;8.10;99.90;;;;;;5063056;28;20079;-76
2021/12/15 04:04:57;;;;;;;22.73;6.00;;;8.10;99.90;;;;;;5065384;28;20094;-76
2021/12/15 04:07:25;;;;;;;19.15;6.10;;;8.10;99.90;;;;;;5050713;28;20052;-76
2021/12/15 04:09:54;;;;;;;25.45;7.50;;;8.20;99.90;;;;;;5065038;28;20048;-76
2021/12/15 04:12:25;;;;;;;22.03;5.43;;;8.20;99.90;;;;;;5066686;28;20037;-76
2021/12/15 04:15:17;;;;;;;28.13;8.07;;;8.10;99.90;;;;;;5061633;28;20040;-76
2021/12/15 04:17:45;;;;;;;19.83;6.78;;;8.20;99.90;;;;;;5067801;28;20048;-76
2021/12/15 04:20:19;;;;;;;25.38;6.22;;;8.20;99.90;;;;;;5060131;28;20402;-78
2021/12/15 04:22:49;;;;;;;25.65;7.57;;;8.20;99.90;;;;;;5049446;28;20048;-76
2021/12/15 04:25:21;;;;;;;30.17;6.87;;;8.20;99.90;;;;;;5059010;28;20337;-76
2021/12/15 04:27:59;;;;;;;23.20;7.38;;;8.20;99.90;;;;;;5066916;28;20044;-76
2021/12/15 04:30:28;;;;;;;30.63;8.45;;;8.30;99.90;;;;;;5066915;28;20052;-76
2021/12/15 04:33:01;;;;;;;21.95;6.60;;;8.30;99.90;;;;;;5062102;28;20044;-76
2021/12/15 04:35:30;;;;;;;24.33;6.85;;;8.30;99.90;;;;;;5061296;28;20047;-76
2021/12/15 04:37:58;;;;;;;21.27;6.33;;;8.30;99.90;;;;;;5059214;28;20139;-76
2021/12/15 04:40:27;;;;;;;26.35;7.45;;;8.20;99.90;;;;;;5036665;28;20049;-76
2021/12/15 04:42:59;;;;;;;25.42;6.38;;;8.20;99.90;;;;;;5047972;28;20076;-76
2021/12/15 04:45:29;;;;;;;30.20;8.55;;;8.30;99.90;;;;;;5039072;28;20052;-76
2021/12/15 04:47:58;;;;;;;22.90;7.53;;;8.30;99.90;;;;;;5057810;28;20103;-76
2021/12/15 04:50:28;;;;;;;23.40;7.13;;;8.30;99.90;;;;;;5062831;28;20460;-77
2021/12/15 04:52:59;;;;;;;26.13;6.88;;;8.30;99.90;;;;;;5044808;28;20041;-76
2021/12/15 04:55:29;;;;;;;29.85;7.68;;;8.30;99.90;;;;;;5037245;28;20092;-76
2021/12/15 04:58:09;;;;;;;26.10;8.38;;;8.40;99.90;;;;;;5036118;28;20147;-75
2021/12/15 05:00:46;;;;;;;21.77;6.70;;;8.40;99.90;;;;;;5070919;28;20060;-75
2021/12/15 05:03:15;;;;;;;22.47;6.27;;;8.30;99.90;;;;;;5069666;28;20212;-75
2021/12/15 05:06:10;;;;;;;17.92;7.15;;;8.30;99.90;;;;;;5068033;28;20071;-75
2021/12/15 05:08:41;;;;;;;24.27;7.40;;;8.30;99.90;;;;;;5045582;28;20586;-75
2021/12/15 05:11:13;;;;;;;21.98;6.85;;;8.20;99.90;;;;;;5040522;28;20056;-76
2021/12/15 05:13:43;;;;;;;23.23;7.40;;;8.20;99.90;;;;;;5047344;28;20331;-77
2021/12/15 05:16:16;;;;;;;22.97;7.60;;;8.30;99.90;;;;;;5056630;28;20051;-76
2021/12/15 05:18:46;;;;;;;20.42;7.20;;;8.30;99.90;;;;;;5059467;28;20102;-75
2021/12/15 05:21:16;;;;;;;25.40;8.25;;;8.30;99.90;;;;;;5065727;28;20068;-76
2021/12/15 05:23:50;;;;;;;20.80;6.85;;;8.30;99.90;;;;;;5057861;28;20051;-76
2021/12/15 05:26:19;;;;;;;22.27;7.00;;;8.40;99.90;;;;;;5066319;28;20486;-76
2021/12/15 05:28:49;;;;;;;20.10;7.13;;;8.40;99.90;;;;;;5068151;28;20062;-76
2021/12/15 05:31:19;;;;;;;27.00;6.70;;;8.40;99.90;;;;;;5046486;28;20075;-76
2021/12/15 05:33:48;;;;;;;23.90;6.30;;;8.40;99.90;;;;;;5075897;28;20055;-76
2021/12/15 05:36:17;;;;;;;21.55;7.60;;;8.40;99.90;;;;;;5060741;28;20048;-76
2021/12/15 05:38:46;;;;;;;19.27;7.45;;;8.50;99.90;;;;;;5055866;28;20055;-76
2021/12/15 05:41:16;;;;;;;23.30;7.03;;;8.50;99.90;;;;;;5050867;28;20063;-75
2021/12/15 05:43:47;;;;;;;23.40;6.95;;;8.50;99.90;;;;;;5061193;28;20066;-81
2021/12/15 05:46:19;;;;;;;28.33;7.18;;;8.60;99.90;;;;;;5068620;28;20044;-74
2021/12/15 05:48:48;;;;;;;23.25;7.32;;;8.50;99.90;;;;;;5062983;28;20113;-72
2021/12/15 05:51:16;;;;;;;28.38;7.40;;;8.40;99.90;;;;;;5064013;28;20136;-75
2021/12/15 05:53:46;;;;;;;25.30;6.67;;;8.40;99.90;;;;;;5062031;28;20044;-75
2021/12/15 05:56:14;;;;;;;25.65;6.97;;;8.50;99.90;;;;;;5070441;28;20134;-76
2021/12/15 06:02:48;;;;;;;24.45;7.70;;;8.50;99.90;;;;;;5008061;28;20042;-90
2021/12/15 06:05:18;;;;;;;24.65;7.70;;;8.40;99.90;;;;;;4979918;28;20065;-91
2021/12/15 06:07:47;;;;;;;28.90;8.53;;;8.40;99.90;;;;;;4979608;28;20088;-92
2021/12/15 06:10:21;;;;;;;28.63;8.05;;;8.40;99.90;;;;;;4972837;28;20056;-90
2021/12/15 06:12:52;;;;;;;20.98;6.28;;;8.40;99.90;;;;;;4979248;28;20496;-89
2021/12/15 06:15:24;;;;;;;24.50;6.53;;;8.30;99.90;;;;;;4978243;28;20058;-89
2021/12/15 06:17:57;;;;;;;22.83;6.47;;;8.20;99.90;;;;;;4995637;28;20082;-91
2021/12/15 06:20:27;;;;;;;23.07;7.20;;;8.20;99.90;;;;;;4981810;28;20057;-91
2021/12/15 06:22:59;;;;;;;20.52;7.80;;;8.20;99.90;;;;;;4978552;28;20073;-91
2021/12/15 06:25:29;;;;;;;37.40;9.50;;;8.20;99.90;;;;;;4988925;28;20519;-91
2021/12/15 06:27:57;;;;;;;26.85;8.10;;;8.30;99.90;;;;;;4978827;28;20050;-91
2021/12/15 06:30:26;;;;;;;27.52;6.28;;;8.30;99.90;;;;;;4972967;28;20146;-91
2021/12/15 06:32:56;;;;;;;24.73;7.37;;;8.40;99.90;;;;;;4982753;28;20096;-90
2021/12/15 06:35:26;;;;;;;22.75;7.22;;;8.40;99.90;;;;;;4979273;28;20058;-90
2021/12/15 06:37:55;;;;;;;22.90;5.63;;;8.40;99.90;;;;;;4995068;28;20459;-90
2021/12/15 06:40:24;;;;;;;18.92;6.22;;;8.30;99.90;;;;;;5011039;28;20156;-88
2021/12/15 06:42:54;;;;;;;20.08;5.57;;;8.30;99.90;;;;;;4979081;28;20058;-90
2021/12/15 06:45:29;;;;;;;25.67;7.70;;;8.40;99.90;;;;;;4978328;28;20369;-90
2021/12/15 06:59:13;;;;;;;23.87;6.73;;;8.50;99.90;;;;;;4978620;28;20063;-90
2021/12/15 07:02:09;;;;;;;21.83;6.40;;;8.50;99.90;;;;;;4980282;28;20062;-91
2021/12/15 07:04:39;;;;;;;22.85;7.32;;;8.50;99.90;;;;;;4960535;28;20343;-91
2021/12/15 07:07:08;;;;;;;23.35;7.05;;;8.50;99.90;;;;;;4958691;28;20050;-90
2021/12/15 07:09:37;;;;;;;20.80;6.57;;;8.50;99.90;;;;;;4987337;28;20081;-91
2021/12/15 07:12:08;;;;;;;20.47;7.27;;;8.40;99.90;;;;;;4955033;28;20141;-90
2021/12/15 07:14:37;;;;;;;24.30;6.68;;;8.40;99.90;;;;;;4980488;28;20065;-89
2021/12/15 07:17:31;;;;;;;19.65;6.47;;;8.40;99.90;;;;;;4960049;28;20047;-89
2021/12/15 07:22:51;;;;;;;22.35;6.45;;;8.30;99.90;;;;;;4964988;28;20152;-89
2021/12/15 07:25:24;;;;;;;17.47;6.40;;;8.30;99.90;;;;;;4959000;28;20394;-90
2021/12/15 07:27:53;;;;;;;17.90;6.05;;;8.30;99.90;;;;;;4965830;28;20046;-89
2021/12/15 07:30:23;;;;;;;22.73;7.38;;;8.30;99.90;;;;;;4982422;28;20143;-89
2021/12/15 07:32:52;;;;;;;19.90;6.78;;;8.30;99.90;;;;;;4965625;28;20053;-89
2021/12/15 07:35:23;;;;;;;26.83;7.50;;;8.30;99.90;;;;;;4986733;28;20473;-89
2021/12/15 07:37:53;;;;;;;23.13;6.67;;;8.30;99.90;;;;;;4983790;28;20051;-88
2021/12/15 07:40:24;;;;;;;24.85;7.22;;;8.30;99.90;;;;;;4970940;28;20102;-88
2021/12/15 07:43:04;;;;;;;22.45;6.30;;;8.30;99.90;;;;;;4988506;28;20493;-89
2021/12/15 07:45:37;;;;;;;22.50;7.15;;;8.20;99.90;;;;;;4967605;28;20140;-89
2021/12/15 07:48:07;;;;;;;27.50;6.47;;;8.30;99.90;;;;;;4987631;28;20096;-89
2021/12/15 07:50:38;;;;;;;17.33;5.60;;;8.20;99.90;;;;;;4984401;28;20061;-88
2021/12/15 07:53:07;;;;;;;18.10;6.28;;;8.30;99.90;;;;;;4981520;28;20046;-89
2021/12/15 07:55:40;;;;;;;29.50;7.40;;;8.40;99.90;;;;;;4960673;28;20113;-88
2021/12/15 07:58:11;;;;;;;22.23;6.30;;;8.40;99.90;;;;;;4963976;28;20058;-89
2021/12/15 08:00:43;;;;;;;22.45;7.05;;;8.40;99.90;;;;;;4966703;28;20050;-88
2021/12/15 08:03:13;;;;;;;26.43;6.53;;;8.40;99.90;;;;;;4997065;28;20071;-90
2021/12/15 08:05:45;;;;;;;27.77;8.70;;;8.40;99.90;;;;;;4980889;28;20054;-88
2021/12/15 08:08:15;;;;;;;21.80;6.90;;;8.40;99.90;;;;;;4980769;28;20125;-89
2021/12/15 08:10:45;;;;;;;26.80;6.70;;;8.50;99.90;;;;;;4978438;28;20053;-88
2021/12/15 08:13:16;;;;;;;20.85;5.95;;;8.50;99.90;;;;;;4980917;28;20416;-89
2021/12/15 08:15:46;;;;;;;24.43;6.87;;;8.50;99.90;;;;;;4974446;28;20448;-89
2021/12/15 08:18:18;;;;;;;29.60;7.55;;;8.50;99.90;;;;;;4979977;28;20578;-89
2021/12/15 08:20:50;;;;;;;23.75;6.88;;;8.40;99.90;;;;;;4996895;28;20521;-89
2021/12/15 08:23:20;;;;;;;21.08;6.10;;;8.20;99.90;;;;;;4997124;28;20500;-89
2021/12/15 08:25:50;;;;;;;32.22;6.70;;;8.10;99.90;;;;;;4981408;28;20062;-89
2021/12/15 08:28:19;;;;;;;24.27;6.93;;;8.20;99.90;;;;;;4999354;28;20241;-89
2021/12/15 08:31:12;;;;;;;23.45;7.15;;;8.20;99.90;;;;;;4998570;28;20050;-89
2021/12/15 08:33:42;;;;;;;30.65;8.05;;;8.20;99.90;;;;;;5004749;28;20054;-89
2021/12/15 08:36:14;;;;;;;20.98;7.35;;;8.20;99.90;;;;;;4994464;28;20133;-89
2021/12/15 08:38:46;;;;;;;29.73;8.07;;;8.20;99.90;;;;;;4994717;28;20199;-89
2021/12/15 08:41:20;;;;;;;24.00;8.10;;;8.20;99.90;;;;;;4986773;28;20055;-89
2021/12/15 08:43:49;;;;;;;29.98;8.70;;;8.20;99.90;;;;;;4977587;28;20041;-88
2021/12/15 08:46:21;;;;;;;27.23;6.85;;;8.30;99.90;;;;;;4995344;28;20041;-88
2021/12/15 08:48:55;;;;;;;23.17;6.68;;;8.40;99.90;;;;;;4977947;28;20125;-91
2021/12/15 08:51:36;;;;;;;24.02;7.18;;;8.50;99.90;;;;;;4980182;28;20092;-90
2021/12/15 08:54:09;;;;;;;23.23;6.33;;;8.50;99.90;;;;;;4989675;28;20046;-89
2021/12/15 08:56:44;;;;;;;24.10;6.47;;;8.70;99.90;;;;;;4996164;28;20129;-90
2021/12/15 08:59:15;;;;;;;26.65;7.22;;;8.70;99.90;;;;;;4996049;28;20062;-90
2021/12/15 09:02:16;;;;;;;23.02;6.63;;;8.80;99.90;;;;;;4984061;28;20061;-90
2021/12/15 09:04:57;;;;;;;26.13;7.30;;;9.00;99.90;;;;;;4999840;28;20082;-89
2021/12/15 09:07:38;;;;;;;22.20;7.67;;;9.00;99.90;;;;;;4992421;28;20050;-89
2021/12/15 09:10:15;;;;;;;28.45;7.85;;;9.00;99.90;;;;;;4996619;28;20539;-90
2021/12/15 09:12:45;;;;;;;25.27;7.22;;;9.00;99.90;;;;;;4997341;28;20539;-89
2021/12/15 09:15:19;;;;;;;32.90;7.50;;;9.00;99.90;;;;;;4979869;28;20140;-89
2021/12/15 09:17:49;;;;;;;28.55;8.50;;;9.00;99.90;;;;;;4979959;28;20100;-90
2021/12/15 09:20:22;;;;;;;35.93;7.40;;;9.00;99.90;;;;;;4979220;28;20050;-89
2021/12/15 09:22:55;;;;;;;24.58;6.70;;;9.10;99.90;;;;;;4968798;28;20124;-90
2021/12/15 09:25:25;;;;;;;22.98;6.85;;;9.10;99.90;;;;;;4995532;28;20464;-91
2021/12/15 09:27:58;;;;;;;28.98;7.88;;;9.00;99.90;;;;;;4979529;28;20057;-90
2021/12/15 09:30:30;;;;;;;24.98;6.38;;;9.10;99.90;;;;;;4979723;28;20547;-90
2021/12/15 09:33:01;;;;;;;26.67;8.30;;;9.10;99.90;;;;;;4979647;28;20137;-89
2021/12/15 09:35:32;;;;;;;23.67;7.55;;;9.20;99.90;;;;;;4979495;28;20513;-90
2021/12/15 09:38:05;;;;;;;26.00;6.85;;;9.20;99.90;;;;;;4995806;28;20042;-90
2021/12/15 09:40:34;;;;;;;23.85;7.05;;;9.20;99.90;;;;;;4975347;28;20058;-90
2021/12/15 09:43:08;;;;;;;28.38;7.65;;;9.20;99.90;;;;;;4993913;28;20107;-90
2021/12/15 09:45:52;;;;;;;30.97;7.57;;;9.30;99.90;;;;;;4995727;28;20050;-91
2021/12/15 09:57:23;;;;;;;20.77;6.30;;;9.20;99.90;;;;;;4977430;28;20077;-91
2021/12/15 10:02:51;;;;;;;23.77;7.68;;;9.20;99.90;;;;;;4993960;28;20046;-91
2021/12/15 10:11:43;;;;;;;22.25;6.93;;;9.30;99.90;;;;;;4989451;28;20497;-90
2021/12/15 10:20:08;;;;;;;28.83;8.30;;;9.40;99.90;;;;;;4885603;29;20159;-90
2021/12/15 10:22:45;;;;;;;24.35;7.30;;;9.40;99.90;;;;;;4882025;29;20052;-90
2021/12/15 10:25:19;;;;;;;24.40;6.85;;;9.40;99.90;;;;;;4897236;29;20052;-89
2021/12/15 10:27:55;;;;;;;27.23;7.47;;;9.50;99.90;;;;;;4899775;28;20837;-88
2021/12/15 10:30:27;;;;;;;30.52;9.00;;;9.60;99.90;;;;;;4980205;28;20376;-89
2021/12/15 10:33:04;;;;;;;27.10;7.72;;;9.50;99.90;;;;;;4982624;28;20503;-87
2021/12/15 10:35:41;;;;;;;33.63;8.88;;;9.60;99.90;;;;;;4984874;28;20053;-89
2021/12/15 10:41:23;;;;;;;27.03;6.83;;;9.70;99.90;;;;;;4977884;28;20101;-89
2021/12/15 10:44:06;;;;;;;30.95;8.55;;;9.70;99.90;;;;;;4976668;28;20054;-89
2021/12/15 10:46:40;;;;;;;29.42;7.72;;;9.70;99.90;;;;;;4996677;28;20054;-89
2021/12/15 10:49:20;;;;;;;26.83;7.95;;;9.70;99.90;;;;;;4994848;28;20145;-88
2021/12/15 10:51:55;;;;;;;29.17;7.32;;;9.70;99.90;;;;;;4993761;28;20119;-90
2021/12/15 10:54:29;;;;;;;26.00;7.67;;;9.70;99.90;;;;;;4993489;28;20041;-88
2021/12/15 10:57:00;;;;;;;22.85;7.68;;;9.70;99.90;;;;;;4993796;28;20062;-89
2021/12/15 10:59:35;;;;;;;24.58;8.50;;;9.70;99.90;;;;;;4995807;28;20127;-88
2021/12/15 11:02:06;;;;;;;23.60;7.63;;;9.70;99.90;;;;;;4976754;28;20388;-89
2021/12/15 11:04:45;;;;;;;21.92;7.78;;;9.80;99.90;;;;;;4994369;28;20045;-89
2021/12/15 11:07:26;;;;;;;22.93;7.07;;;9.80;99.90;;;;;;4972603;28;20801;-88
2021/12/15 11:10:32;;;;;;;21.83;6.55;;;9.80;99.90;;;;;;4993996;28;20050;-89
2021/12/15 11:13:47;;;;;;;26.10;6.55;;;9.80;99.90;;;;;;4987674;28;20126;-88
2021/12/15 11:17:06;;;;;;;21.83;6.90;;;9.80;99.90;;;;;;4993371;28;20125;-88
2021/12/15 11:20:00;;;;;;;19.20;5.65;;;9.80;99.90;;;;;;4992691;28;20530;-88
2021/12/15 11:22:44;;;;;;;14.43;5.27;;;9.90;99.90;;;;;;4995144;28;20092;-87
2021/12/15 11:25:19;;;;;;;20.55;6.43;;;9.90;99.90;;;;;;5014793;28;20236;-88
2021/12/15 11:27:52;;;;;;;19.02;5.88;;;9.80;99.90;;;;;;4979621;28;20042;-88
2021/12/15 11:30:26;;;;;;;17.92;5.32;;;9.70;99.90;;;;;;4978187;28;20396;-89
2021/12/15 11:32:59;;;;;;;15.10;5.05;;;9.60;99.90;;;;;;4989590;28;20052;-89
2021/12/15 11:35:32;;;;;;;20.00;6.47;;;9.70;99.90;;;;;;4976232;28;20184;-89
2021/12/15 11:38:06;;;;;;;21.50;6.13;;;9.80;99.90;;;;;;4985465;28;20084;-92
2021/12/15 11:41:12;;;;;;;18.65;6.90;;;9.90;99.90;;;;;;5009645;28;20046;-91
2021/12/15 11:43:56;;;;;;;21.08;6.18;;;9.90;99.90;;;;;;4992104;28;20066;-93
2021/12/15 11:46:32;;;;;;;16.33;6.00;;;9.90;99.90;;;;;;4998871;28;20131;-90
2021/12/15 11:49:05;;;;;;;16.13;5.50;;;10.00;99.90;;;;;;4994067;28;20038;-91
2021/12/15 11:51:42;;;;;;;16.50;4.88;;;10.00;99.90;;;;;;4971158;28;20492;-92
2021/12/15 11:54:21;;;;;;;16.77;5.85;;;10.10;99.90;;;;;;4984542;28;20500;-91
2021/12/15 11:56:53;;;;;;;19.48;6.55;;;10.00;99.90;;;;;;4975433;28;20053;-91
2021/12/15 11:59:28;;;;;;;17.70;5.75;;;10.10;99.90;;;;;;4992509;28;20046;-92
2021/12/15 12:02:08;;;;;;;16.07;6.03;;;10.10;99.90;;;;;;4973672;28;20047;-91
2021/12/15 12:04:46;;;;;;;16.95;6.35;;;10.10;99.90;;;;;;4972187;28;20054;-92
2021/12/15 12:07:24;;;;;;;18.33;5.63;;;10.10;99.90;;;;;;4970021;28;20169;-92
2021/12/15 12:10:05;;;;;;;18.38;6.07;;;10.10;99.90;;;;;;4973890;28;20050;-92
2021/12/15 12:13:24;;;;;;;18.23;6.45;;;10.10;99.90;;;;;;4972442;28;20126;-91
2021/12/15 12:15:59;;;;;;;22.50;7.73;;;10.00;99.90;;;;;;4987079;28;20093;-91
2021/12/15 12:18:34;;;;;;;17.10;5.75;;;10.00;99.90;;;;;;4989409;28;20050;-92
2021/12/15 12:21:11;;;;;;;15.02;5.53;;;9.90;99.90;;;;;;4988396;28;20046;-91
2021/12/15 12:23:46;;;;;;;17.27;5.65;;;9.90;99.90;;;;;;4976462;28;20110;-91
2021/12/15 12:26:26;;;;;;;17.02;5.63;;;9.90;99.90;;;;;;5006802;28;20105;-92
2021/12/15 12:28:55;;;;;;;15.37;6.90;;;9.90;99.90;;;;;;4977307;28;20544;-90
2021/12/15 12:31:28;;;;;;;13.32;5.45;;;9.90;99.90;;;;;;4978681;28;20054;-92
2021/12/15 12:34:02;;;;;;;11.45;4.80;;;9.90;99.90;;;;;;4990877;28;20559;-91
2021/12/15 12:37:09;;;;;;;15.70;5.28;;;9.90;99.90;;;;;;5006262;28;20054;-92
2021/12/15 12:39:54;;;;;;;11.57;4.93;;;9.90;99.90;;;;;;4961453;28;20129;-90
2021/12/15 12:42:36;;;;;;;18.13;4.93;;;9.80;99.90;;;;;;4971825;28;20054;-91
2021/12/15 12:45:15;;;;;;;11.82;4.43;;;9.70;99.90;;;;;;4977565;28;20046;-90
2021/12/15 12:48:01;;;;;;;12.57;4.43;;;9.70;99.90;;;;;;4976977;28;20101;-91
2021/12/15 12:59:39;;;;;;;11.50;4.28;;;9.70;99.90;;;;;;4992117;28;20053;-91
2021/12/15 13:02:38;;;;;;;14.65;5.22;;;9.80;99.90;;;;;;4981623;28;20496;-91
2021/12/15 13:05:29;;;;;;;11.88;4.13;;;9.80;99.90;;;;;;4994308;28;20373;-90
2021/12/15 13:08:02;;;;;;;12.70;5.10;;;9.80;99.90;;;;;;4979538;28;20456;-90
2021/12/15 13:10:55;;;;;;;12.40;4.63;;;9.80;99.90;;;;;;4979523;28;20065;-89
2021/12/15 13:13:54;;;;;;;12.40;4.80;;;9.70;99.90;;;;;;4979630;28;20053;-88
2021/12/15 13:16:53;;;;;;;12.85;4.20;;;9.70;99.90;;;;;;4994555;28;20057;-90
2021/12/15 13:19:46;;;;;;;11.15;4.43;;;9.70;99.90;;;;;;4977516;28;20129;-90
2021/12/15 13:22:25;;;;;;;14.98;4.60;;;9.70;99.90;;;;;;4995202;28;20542;-92
2021/12/15 13:31:20;;;;;;;13.50;4.72;;;9.70;99.90;;;;;;4992963;28;20053;-90
2021/12/15 13:33:52;;;;;;;11.27;4.28;;;9.70;99.90;;;;;;4986362;28;20053;-89
2021/12/15 13:36:23;;;;;;;13.05;4.63;;;9.70;99.90;;;;;;4978090;28;20104;-90
2021/12/15 13:39:26;;;;;;;10.67;3.83;;;9.70;99.90;;;;;;4977648;28;20064;-90
2021/12/15 13:42:03;;;;;;;15.35;4.55;;;9.70;99.90;;;;;;4976510;28;20469;-91
2021/12/15 13:44:40;;;;;;;8.20;3.42;;;9.80;99.90;;;;;;4997165;28;20046;-91
2021/12/15 13:47:19;;;;;;;13.63;4.47;;;9.80;99.90;;;;;;4994176;28;20046;-90
2021/12/15 13:49:51;;;;;;;12.18;4.80;;;9.90;99.90;;;;;;4977543;28;20049;-91
2021/12/15 13:52:44;;;;;;;9.23;3.87;;;9.90;99.90;;;;;;4977856;28;20128;-91
2021/12/15 13:55:28;;;;;;;9.38;3.50;;;9.90;99.90;;;;;;4994585;28;20138;-92
2021/12/15 13:58:23;;;;;;;10.50;4.13;;;9.90;99.90;;;;;;4978369;28;20042;-92
2021/12/15 14:01:00;;;;;;;9.80;3.33;;;9.80;99.90;;;;;;4975308;28;20054;-92
2021/12/15 14:03:45;;;;;;;11.18;4.05;;;9.80;99.90;;;;;;4993119;28;20058;-91
2021/12/15 14:06:23;;;;;;;9.67;4.53;;;9.70;99.90;;;;;;4977349;28;20042;-92
2021/12/15 14:08:58;;;;;;;10.35;4.20;;;9.70;99.90;;;;;;4982010;28;20054;-91
2021/12/15 14:11:29;;;;;;;10.52;4.60;;;9.80;99.90;;;;;;4973544;28;20050;-90
2021/12/15 14:14:01;;;;;;;10.80;4.47;;;9.80;99.90;;;;;;4957888;28;20058;-91
2021/12/15 14:19:47;;;;;;;11.57;4.97;;;9.80;99.90;;;;;;4956667;28;20050;-91
2021/12/15 14:22:18;;;;;;;13.18;5.22;;;9.80;99.90;;;;;;4972562;28;20104;-92
2021/12/15 14:24:54;;;;;;;14.05;5.53;;;9.90;99.90;;;;;;4974533;28;20057;-89
2021/12/15 14:27:25;;;;;;;16.75;5.55;;;9.90;99.90;;;;;;4966249;28;20137;-92
2021/12/15 14:29:54;;;;;;;11.52;4.22;;;9.90;99.90;;;;;;4973421;28;20046;-90
2021/12/15 14:32:28;;;;;;;13.03;5.00;;;9.90;99.90;;;;;;4957724;28;20135;-90
2021/12/15 14:34:57;;;;;;;10.35;4.57;;;9.80;99.90;;;;;;4967924;28;20396;-90
2021/12/15 14:37:26;;;;;;;10.40;4.57;;;9.80;99.90;;;;;;4987445;28;20054;-90
2021/12/15 14:39:55;;;;;;;10.57;4.40;;;9.80;99.90;;;;;;4972562;28;20052;-90
2021/12/15 14:42:27;;;;;;;11.70;4.30;;;9.70;99.90;;;;;;4987370;28;20515;-90
2021/12/15 14:44:59;;;;;;;11.10;4.67;;;9.70;99.90;;;;;;4958155;28;20452;-90
2021/12/15 14:47:31;;;;;;;10.27;4.35;;;9.70;99.90;;;;;;4974583;28;20051;-90
2021/12/15 14:50:05;;;;;;;13.38;4.78;;;9.80;99.90;;;;;;4974875;28;20050;-91
2021/12/15 14:52:43;;;;;;;11.00;4.20;;;9.80;99.90;;;;;;4977508;28;20054;-91
2021/12/15 14:55:16;;;;;;;9.23;3.13;;;9.90;99.90;;;;;;4992463;28;20026;-90
2021/12/15 14:58:05;;;;;;;9.27;3.60;;;9.90;99.90;;;;;;4977939;28;20078;-91
2021/12/15 15:00:49;;;;;;;13.98;4.10;;;9.90;99.90;;;;;;4993960;28;20057;-90